createdAt,value
2022-12-18T00:00:09.761Z,3.47
2022-12-18T00:02:38.421Z,2.90
2022-12-18T00:05:07.704Z,2.80
2022-12-18T00:07:36.006Z,2.65
2022-12-18T00:10:04.429Z,2.70
2022-12-18T00:12:34.084Z,2.35
2022-12-18T00:15:02.707Z,2.53
2022-12-18T00:17:31.038Z,2.45
2022-12-18T00:19:59.313Z,2.72
2022-12-18T00:22:27.760Z,2.75
2022-12-18T00:24:56.037Z,2.63
2022-12-18T00:27:24.457Z,3.08
2022-12-18T00:29:54.260Z,2.85
2022-12-18T00:32:22.518Z,2.88
2022-12-18T00:34:50.964Z,3.10
2022-12-18T00:37:20.378Z,3.35
2022-12-18T00:39:51.443Z,3.50
2022-12-18T00:42:36.163Z,3.47
2022-12-18T00:45:12.094Z,3.42
2022-12-18T00:47:41.343Z,3.00
2022-12-18T00:50:11.369Z,3.10
2022-12-18T00:52:40.002Z,3.20
2022-12-18T00:55:09.289Z,3.42
2022-12-18T00:57:37.986Z,4.40
2022-12-18T01:00:10.608Z,3.95
2022-12-18T01:02:39.221Z,4.15
2022-12-18T01:05:08.377Z,4.03
2022-12-18T01:07:36.778Z,3.88
2022-12-18T01:10:06.500Z,3.58
2022-12-18T01:12:35.305Z,3.95
2022-12-18T01:15:03.615Z,3.55
2022-12-18T01:17:33.342Z,3.50
2022-12-18T01:20:01.824Z,3.70
2022-12-18T01:22:30.289Z,3.63
2022-12-18T01:24:58.706Z,3.83
2022-12-18T01:27:27.010Z,3.20
2022-12-18T01:29:55.380Z,2.80
2022-12-18T01:32:23.854Z,3.37
2022-12-18T01:34:53.558Z,2.80
2022-12-18T01:37:21.864Z,2.70
2022-12-18T01:39:50.985Z,3.00
2022-12-18T01:42:19.556Z,3.65
2022-12-18T01:45:02.120Z,2.88
2022-12-18T01:47:35.771Z,2.90
2022-12-18T01:50:08.829Z,2.50
2022-12-18T01:52:39.610Z,2.60
2022-12-18T01:55:09.539Z,2.65
2022-12-18T01:57:39.247Z,2.65
2022-12-18T02:00:10.219Z,2.70
2022-12-18T02:02:39.053Z,2.22
2022-12-18T02:05:10.323Z,2.30
2022-12-18T02:07:47.765Z,2.67
2022-12-18T02:10:22.543Z,2.28
2022-12-18T02:12:55.082Z,1.83
2022-12-18T02:15:33.927Z,1.63
2022-12-18T02:18:09.627Z,1.92
2022-12-18T02:20:47.019Z,2.25
2022-12-18T02:23:26.439Z,2.17
2022-12-18T02:26:17.591Z,1.20
2022-12-18T02:28:50.308Z,1.30
2022-12-18T02:31:25.374Z,1.40
2022-12-18T02:33:58.583Z,1.87
2022-12-18T02:36:28.562Z,1.48
2022-12-18T02:38:58.161Z,1.60
2022-12-18T02:41:28.496Z,1.50
2022-12-18T02:43:59.336Z,1.58
2022-12-18T02:46:34.586Z,1.70
2022-12-18T02:49:14.195Z,1.90
2022-12-18T02:51:52.761Z,1.77
2022-12-18T02:54:38.615Z,1.60
2022-12-18T02:57:16.726Z,2.10
2022-12-18T02:59:55.471Z,1.83
2022-12-18T03:02:29.185Z,1.85
2022-12-18T03:05:07.196Z,1.57
2022-12-18T03:07:40.612Z,2.00
2022-12-18T03:10:13.433Z,1.88
2022-12-18T03:12:47.542Z,1.80
2022-12-18T03:15:19.782Z,1.90
2022-12-18T03:17:53.197Z,2.03
2022-12-18T03:20:24.257Z,1.65
2022-12-18T03:22:55.876Z,1.90
2022-12-18T03:25:24.734Z,1.77
2022-12-18T03:27:58.850Z,2.30
2022-12-18T03:30:29.938Z,1.90
2022-12-18T03:33:04.874Z,1.77
2022-12-18T03:35:37.187Z,1.92
2022-12-18T03:38:05.515Z,2.22
2022-12-18T03:40:43.277Z,2.42
2022-12-18T03:43:19.001Z,2.60
2022-12-18T03:45:53.509Z,2.40
2022-12-18T03:48:30.248Z,2.28
2022-12-18T03:51:01.811Z,2.30
2022-12-18T03:53:39.024Z,2.70
2022-12-18T03:56:08.878Z,3.10
2022-12-18T03:58:40.957Z,3.03
2022-12-18T04:01:12.186Z,3.22
2022-12-18T04:03:41.441Z,3.03
2022-12-18T04:06:10.637Z,3.47
2022-12-18T04:08:39.723Z,3.23
2022-12-18T04:11:08.137Z,3.80
2022-12-18T04:13:40.427Z,4.20
2022-12-18T04:16:11.514Z,3.88
2022-12-18T04:18:39.785Z,4.55
2022-12-18T04:21:08.052Z,4.40
2022-12-18T04:23:36.776Z,4.18
2022-12-18T04:26:05.290Z,4.57
2022-12-18T04:28:33.657Z,4.70
2022-12-18T04:31:03.592Z,4.88
2022-12-18T04:33:31.903Z,4.60
2022-12-18T04:36:00.151Z,4.97
2022-12-18T04:38:28.443Z,4.87
2022-12-18T04:40:56.712Z,5.07
2022-12-18T04:43:25.107Z,4.95
2022-12-18T04:45:53.399Z,4.73
2022-12-18T04:48:23.076Z,4.78
2022-12-18T04:50:51.401Z,5.88
2022-12-18T04:53:19.853Z,5.13
2022-12-18T04:55:48.113Z,4.97
2022-12-18T04:58:17.575Z,4.90
2022-12-18T05:00:45.835Z,5.20
2022-12-18T05:03:14.133Z,4.82
2022-12-18T05:05:43.948Z,4.82
2022-12-18T05:08:12.291Z,5.15
2022-12-18T05:10:40.703Z,5.05
2022-12-18T05:13:09.993Z,5.00
2022-12-18T05:15:38.631Z,5.37
2022-12-18T05:18:07.140Z,5.50
2022-12-18T05:20:35.337Z,4.95
2022-12-18T05:23:05.027Z,5.40
2022-12-18T05:25:33.336Z,4.65
2022-12-18T05:28:01.590Z,5.03
2022-12-18T05:30:29.927Z,5.10
2022-12-18T05:32:58.205Z,4.75
2022-12-18T05:35:27.519Z,5.05
2022-12-18T05:37:56.584Z,5.38
2022-12-18T05:40:26.227Z,5.18
2022-12-18T05:42:54.435Z,4.43
2022-12-18T05:45:22.669Z,5.47
2022-12-18T05:47:50.954Z,5.63
2022-12-18T05:50:19.381Z,4.63
2022-12-18T05:52:47.605Z,4.93
2022-12-18T05:55:15.957Z,4.95
2022-12-18T05:57:45.655Z,4.88
2022-12-18T06:00:15.573Z,4.93
2022-12-18T06:02:43.944Z,4.18
2022-12-18T06:05:12.485Z,4.22
2022-12-18T06:07:40.811Z,3.97
2022-12-18T06:10:09.641Z,4.20
2022-12-18T06:12:38.098Z,4.03
2022-12-18T06:15:09.958Z,4.22
2022-12-18T06:17:39.330Z,4.30
2022-12-18T06:20:08.453Z,4.18
2022-12-18T06:22:37.091Z,4.10
2022-12-18T06:25:06.960Z,4.53
2022-12-18T06:27:36.232Z,4.20
2022-12-18T06:30:04.998Z,3.95
2022-12-18T06:32:34.829Z,4.63
2022-12-18T06:35:03.075Z,4.78
2022-12-18T06:37:33.340Z,4.68
2022-12-18T06:40:02.039Z,4.30
2022-12-18T06:42:31.097Z,5.10
2022-12-18T06:44:59.457Z,4.22
2022-12-18T06:47:27.670Z,4.20
2022-12-18T06:49:57.291Z,4.57
2022-12-18T06:52:25.676Z,3.95
2022-12-18T06:54:54.021Z,3.58
2022-12-18T06:57:22.221Z,4.32
2022-12-18T06:59:50.482Z,3.90
2022-12-18T07:02:18.774Z,3.65
2022-12-18T07:04:47.021Z,4.32
2022-12-18T07:07:16.688Z,3.92
2022-12-18T07:09:44.992Z,3.60
2022-12-18T07:12:13.291Z,2.97
2022-12-18T07:14:41.897Z,2.20
2022-12-18T07:17:10.368Z,1.73
2022-12-18T07:19:38.711Z,1.50
2022-12-18T07:22:06.942Z,1.77
2022-12-18T07:24:36.852Z,1.90
2022-12-18T07:27:05.173Z,2.30
2022-12-18T07:29:36.272Z,3.10
2022-12-18T07:32:04.665Z,3.53
2022-12-18T07:34:32.878Z,3.50
2022-12-18T07:37:01.553Z,3.72
2022-12-18T07:39:30.015Z,3.65
2022-12-18T07:42:16.739Z,3.10
2022-12-18T07:44:44.990Z,3.28
2022-12-18T07:47:13.290Z,3.80
2022-12-18T07:49:41.529Z,3.58
2022-12-18T07:52:10.557Z,4.00
2022-12-18T07:54:38.777Z,3.72
2022-12-18T07:57:16.421Z,3.97
2022-12-18T07:59:56.697Z,3.97
2022-12-18T08:02:25.106Z,3.45
2022-12-18T08:04:53.423Z,3.90
2022-12-18T08:07:21.787Z,4.35
2022-12-18T08:09:50.074Z,3.70
2022-12-18T08:12:19.699Z,4.00
2022-12-18T08:14:48.025Z,3.75
2022-12-18T08:17:16.308Z,3.77
2022-12-18T08:19:44.592Z,3.60
2022-12-18T08:22:12.849Z,3.73
2022-12-18T08:24:41.185Z,4.10
2022-12-18T08:29:59.536Z,3.85
2022-12-18T08:32:28.514Z,4.00
2022-12-18T08:34:56.804Z,3.50
2022-12-18T08:37:25.082Z,3.78
2022-12-18T08:39:53.283Z,4.75
2022-12-18T08:42:38.772Z,4.40
2022-12-18T08:45:09.728Z,4.88
2022-12-18T08:47:38.012Z,4.53
2022-12-18T08:50:07.172Z,4.78
2022-12-18T08:52:35.445Z,4.53
2022-12-18T08:55:03.687Z,5.68
2022-12-18T08:57:32.088Z,5.03
2022-12-18T09:00:00.419Z,5.10
2022-12-18T09:02:30.276Z,4.93
2022-12-18T09:04:58.860Z,4.68
2022-12-18T09:07:27.385Z,4.78
2022-12-18T09:09:55.943Z,4.77
2022-12-18T09:12:24.231Z,5.28
2022-12-18T09:14:52.642Z,5.25
2022-12-18T09:17:21.006Z,4.20
2022-12-18T09:19:50.753Z,4.70
2022-12-18T09:22:19.580Z,4.40
2022-12-18T09:24:47.882Z,5.40
2022-12-18T09:27:16.255Z,4.90
2022-12-18T09:29:44.676Z,4.50
2022-12-18T09:32:15.310Z,5.18
2022-12-18T09:34:47.319Z,4.85
2022-12-18T09:37:17.031Z,4.90
2022-12-18T09:39:45.397Z,5.50
2022-12-18T09:42:21.990Z,5.05
2022-12-18T09:44:52.825Z,4.47
2022-12-18T09:47:25.882Z,4.85
2022-12-18T09:49:59.020Z,4.60
2022-12-18T09:52:32.747Z,4.65
2022-12-18T09:55:04.395Z,4.60
2022-12-18T09:57:35.686Z,5.17
2022-12-18T10:00:19.438Z,4.55
2022-12-18T10:02:48.799Z,4.43
2022-12-18T10:05:22.948Z,4.43
2022-12-18T10:08:02.889Z,4.50
2022-12-18T10:10:40.495Z,4.20
2022-12-18T10:13:23.852Z,4.07
2022-12-18T10:16:05.323Z,4.28
2022-12-18T10:19:07.132Z,4.20
2022-12-18T10:21:41.653Z,4.43
2022-12-18T10:24:21.712Z,4.28
2022-12-18T10:26:50.338Z,4.28
2022-12-18T10:29:19.335Z,4.30
2022-12-18T10:31:47.677Z,4.22
2022-12-18T10:34:16.173Z,4.63
2022-12-18T10:36:45.027Z,4.38
2022-12-18T10:39:23.740Z,3.97
2022-12-18T10:41:52.737Z,4.45
2022-12-18T10:44:23.364Z,4.60
2022-12-18T10:46:57.104Z,3.90
2022-12-18T10:49:28.225Z,4.57
2022-12-18T10:52:09.574Z,3.88
2022-12-18T10:54:40.710Z,4.20
2022-12-18T10:57:30.694Z,4.68
2022-12-18T11:00:00.755Z,4.40
2022-12-18T11:02:35.404Z,4.00
2022-12-18T11:05:06.298Z,3.80
2022-12-18T11:07:51.156Z,3.88
2022-12-18T11:10:22.122Z,3.70
2022-12-18T11:12:50.920Z,3.88
2022-12-18T11:15:22.656Z,3.38
2022-12-18T11:17:53.615Z,3.83
2022-12-18T11:20:32.731Z,3.72
2022-12-18T11:23:02.705Z,3.45
2022-12-18T11:25:35.945Z,3.60
2022-12-18T11:28:07.334Z,3.70
2022-12-18T11:30:37.816Z,4.00
2022-12-18T11:33:09.398Z,3.90
2022-12-18T11:35:43.264Z,3.83
2022-12-18T11:38:22.242Z,4.53
2022-12-18T11:40:55.411Z,4.60
2022-12-18T11:43:30.168Z,5.03
2022-12-18T11:46:04.883Z,4.80
2022-12-18T11:48:36.786Z,4.63
2022-12-18T11:51:11.683Z,4.30
2022-12-18T11:53:41.073Z,4.03
2022-12-18T11:56:29.862Z,3.80
2022-12-18T11:59:08.406Z,3.70
2022-12-18T12:01:47.503Z,3.70
2022-12-18T12:04:41.212Z,3.72
2022-12-18T12:07:27.310Z,3.88
2022-12-18T12:10:07.650Z,3.15
2022-12-18T12:12:48.741Z,3.60
2022-12-18T12:15:27.998Z,3.57
2022-12-18T12:18:08.197Z,3.65
2022-12-18T12:20:50.650Z,3.40
2022-12-18T12:23:28.454Z,3.70
2022-12-18T12:26:04.206Z,3.60
2022-12-18T12:28:54.905Z,3.53
2022-12-18T12:31:40.487Z,3.67
2022-12-18T12:34:19.011Z,4.00
2022-12-18T12:37:00.653Z,4.25
2022-12-18T12:39:35.270Z,3.85
2022-12-18T12:42:23.439Z,5.50
2022-12-18T12:44:57.518Z,4.43
2022-12-18T12:47:28.943Z,3.93
2022-12-18T12:49:59.946Z,3.95
2022-12-18T12:52:33.239Z,2.80
2022-12-18T12:55:02.585Z,3.97
2022-12-18T12:57:37.028Z,2.90
2022-12-18T13:00:11.611Z,3.57
2022-12-18T13:02:49.754Z,3.30
2022-12-18T13:05:23.862Z,3.50
2022-12-18T13:08:00.450Z,3.63
2022-12-18T13:10:35.175Z,3.78
2022-12-18T13:13:05.726Z,3.23
2022-12-18T13:15:41.824Z,3.92
2022-12-18T13:18:31.251Z,3.30
2022-12-18T13:21:15.000Z,3.13
2022-12-18T13:23:44.565Z,2.92
2022-12-18T13:26:37.024Z,3.40
2022-12-18T13:29:07.282Z,3.10
2022-12-18T13:32:03.167Z,2.72
2022-12-18T13:34:33.692Z,2.80
2022-12-18T13:37:35.635Z,2.85
2022-12-18T13:40:04.476Z,3.22
2022-12-18T13:43:00.564Z,3.40
2022-12-18T13:45:47.880Z,3.70
2022-12-18T13:48:25.617Z,3.00
2022-12-18T13:51:00.869Z,3.60
2022-12-18T13:53:32.721Z,3.00
2022-12-18T13:56:01.429Z,2.80
2022-12-18T13:58:29.725Z,2.88
2022-12-18T14:01:00.329Z,2.20
2022-12-18T14:03:31.713Z,2.23
2022-12-18T14:06:08.140Z,3.15
2022-12-18T14:08:41.805Z,2.92
2022-12-18T14:11:22.670Z,2.45
2022-12-18T14:13:51.862Z,3.17
2022-12-18T14:16:20.943Z,2.63
2022-12-18T14:18:56.531Z,2.67
2022-12-18T14:21:33.594Z,2.20
2022-12-18T14:24:15.549Z,2.88
2022-12-18T14:26:50.033Z,2.15
2022-12-18T14:29:25.421Z,2.60
2022-12-18T14:32:16.916Z,2.75
2022-12-18T14:34:46.867Z,2.95
2022-12-18T14:37:18.978Z,3.65
2022-12-18T14:39:59.077Z,3.53
2022-12-18T14:42:29.385Z,3.00
2022-12-18T14:45:41.516Z,3.03
2022-12-18T14:48:16.473Z,3.20
2022-12-18T14:50:59.152Z,4.60
2022-12-18T14:53:36.584Z,4.65
2022-12-18T14:56:11.272Z,4.32
2022-12-18T14:58:39.702Z,5.28
2022-12-18T15:01:08.787Z,4.85
2022-12-18T15:03:37.217Z,3.27
2022-12-18T15:06:19.267Z,5.20
2022-12-18T15:08:49.327Z,4.85
2022-12-18T15:11:37.486Z,3.97
2022-12-18T15:14:25.027Z,3.47
2022-12-18T15:16:55.630Z,4.60
2022-12-18T15:19:26.298Z,7.10
2022-12-18T15:21:54.623Z,5.43
2022-12-18T15:24:29.615Z,6.18
2022-12-18T15:26:57.947Z,7.13
2022-12-18T15:29:26.408Z,5.33
2022-12-18T15:32:03.500Z,4.60
2022-12-18T15:34:32.745Z,4.63
2022-12-18T15:37:01.222Z,4.80
2022-12-18T15:39:30.906Z,4.37
2022-12-18T15:42:17.054Z,4.28
2022-12-18T15:44:46.690Z,4.28
2022-12-18T15:47:15.355Z,4.93
2022-12-18T15:49:43.744Z,4.97
2022-12-18T15:52:15.445Z,4.40
2022-12-18T15:55:02.620Z,4.28
2022-12-18T15:57:30.928Z,5.63
2022-12-18T15:59:59.830Z,4.45
2022-12-18T16:02:29.517Z,4.35
2022-12-18T16:04:59.870Z,4.88
2022-12-18T16:07:30.577Z,5.75
2022-12-18T16:10:02.308Z,5.57
2022-12-18T16:12:30.992Z,5.00
2022-12-18T16:14:59.252Z,6.25
2022-12-18T16:17:27.528Z,5.03
2022-12-18T16:19:55.981Z,4.35
2022-12-18T16:22:25.759Z,4.30
2022-12-18T16:24:55.027Z,4.80
2022-12-18T16:27:25.539Z,3.47
2022-12-18T16:29:53.989Z,4.88
2022-12-18T16:32:23.797Z,4.63
2022-12-18T16:34:52.996Z,8.02
2022-12-18T16:37:21.364Z,5.07
2022-12-18T16:39:49.619Z,7.18
2022-12-18T16:42:20.864Z,4.70
2022-12-18T16:44:51.462Z,6.15
2022-12-18T16:47:20.603Z,4.45
2022-12-18T16:49:51.786Z,4.75
2022-12-18T16:52:20.420Z,4.38
2022-12-18T16:54:48.804Z,4.93
2022-12-18T16:57:19.527Z,4.22
2022-12-18T16:59:50.941Z,5.70
2022-12-18T17:02:22.838Z,4.70
2022-12-18T17:04:54.462Z,4.57
2022-12-18T17:07:22.743Z,4.30
2022-12-18T17:09:51.369Z,12.65
2022-12-18T17:12:19.784Z,7.63
2022-12-18T17:14:48.051Z,5.78
2022-12-18T17:17:21.476Z,6.93
2022-12-18T17:19:50.781Z,4.72
2022-12-18T17:22:19.057Z,4.55
2022-12-18T17:24:48.521Z,4.68
2022-12-18T17:27:17.021Z,7.15
2022-12-18T17:29:48.438Z,4.82
2022-12-18T17:32:18.838Z,6.30
2022-12-18T17:34:47.197Z,6.07
2022-12-18T17:37:15.791Z,5.70
2022-12-18T17:39:44.493Z,6.00
2022-12-18T17:42:15.551Z,6.32
2022-12-18T17:44:44.992Z,7.63
2022-12-18T17:47:13.732Z,8.87
2022-12-18T17:49:43.529Z,9.05
2022-12-18T17:52:12.141Z,8.93
2022-12-18T17:54:42.335Z,7.05
2022-12-18T17:57:11.106Z,7.20
2022-12-18T17:59:39.632Z,5.65
2022-12-18T18:02:08.290Z,5.43
2022-12-18T18:04:36.882Z,5.45
2022-12-18T18:07:06.589Z,5.10
2022-12-18T18:09:35.006Z,4.70
2022-12-18T18:12:20.370Z,4.00
2022-12-18T18:14:48.768Z,3.00
2022-12-18T18:17:17.158Z,3.63
2022-12-18T18:19:48.016Z,3.57
2022-12-18T18:22:20.196Z,2.90
2022-12-18T18:24:48.564Z,4.10
2022-12-18T18:27:16.974Z,3.58
2022-12-18T18:29:45.614Z,4.00
2022-12-18T18:32:14.025Z,4.57
2022-12-18T18:34:42.286Z,4.78
2022-12-18T18:37:12.016Z,3.80
2022-12-18T18:39:41.842Z,4.45
2022-12-18T18:42:10.204Z,5.47
2022-12-18T18:44:38.771Z,4.85
2022-12-18T18:47:08.565Z,4.68
2022-12-18T18:49:37.990Z,4.13
2022-12-18T18:52:07.260Z,4.90
2022-12-18T18:54:35.557Z,4.28
2022-12-18T18:57:23.374Z,3.50
2022-12-18T18:59:54.634Z,3.70
2022-12-18T19:02:23.049Z,4.30
2022-12-18T19:04:51.608Z,2.97
2022-12-18T19:07:30.493Z,3.33
2022-12-18T19:10:04.073Z,3.28
2022-12-18T19:12:53.067Z,3.60
2022-12-18T19:15:21.823Z,3.87
2022-12-18T19:17:50.485Z,4.43
2022-12-18T19:20:19.248Z,3.80
2022-12-18T19:22:49.006Z,3.70
2022-12-18T19:25:26.938Z,4.93
2022-12-18T19:28:04.145Z,5.37
2022-12-18T19:30:34.248Z,5.55
2022-12-18T19:33:19.828Z,4.80
2022-12-18T19:35:50.818Z,4.03
2022-12-18T19:38:19.325Z,4.17
2022-12-18T19:40:48.925Z,5.13
2022-12-18T19:43:18.796Z,4.30
2022-12-18T19:45:47.149Z,3.97
2022-12-18T19:48:15.417Z,6.60
2022-12-18T19:50:44.522Z,5.63
2022-12-18T19:53:12.852Z,5.28
2022-12-18T19:55:43.306Z,5.80
2022-12-18T19:58:13.223Z,5.13
2022-12-18T20:00:42.874Z,4.22
2022-12-18T20:03:21.624Z,4.43
2022-12-18T20:05:53.727Z,5.35
2022-12-18T20:08:22.858Z,4.83
2022-12-18T20:10:51.079Z,4.57
2022-12-18T20:13:19.969Z,4.68
2022-12-18T20:15:49.728Z,5.95
2022-12-18T20:18:18.064Z,5.07
2022-12-18T20:20:46.521Z,5.43
2022-12-18T20:23:16.678Z,4.95
2022-12-18T20:25:45.054Z,4.50
2022-12-18T20:28:14.539Z,4.30
2022-12-18T20:30:42.950Z,4.13
2022-12-18T20:33:12.692Z,3.88
2022-12-18T20:35:41.227Z,3.80
2022-12-18T20:38:09.843Z,4.20
2022-12-18T20:40:42.167Z,4.50
2022-12-18T20:43:16.786Z,2.97
2022-12-18T20:45:45.655Z,4.00
2022-12-18T20:48:16.724Z,3.88
2022-12-18T20:50:59.003Z,3.30
2022-12-18T20:53:30.787Z,3.30
2022-12-18T20:55:59.266Z,3.08
2022-12-18T20:58:27.639Z,3.45
2022-12-18T21:01:06.902Z,2.72
2022-12-18T21:03:36.922Z,2.20
2022-12-18T21:06:05.807Z,2.28
2022-12-18T21:08:34.960Z,2.25
2022-12-18T21:11:35.804Z,2.25
2022-12-18T21:14:04.562Z,2.33
2022-12-18T21:16:33.935Z,2.50
2022-12-18T21:19:03.942Z,2.33
2022-12-18T21:21:37.214Z,2.78
2022-12-18T21:24:08.422Z,2.53
2022-12-18T21:26:45.103Z,2.15
2022-12-18T21:29:17.056Z,2.25
2022-12-18T21:31:46.608Z,1.83
2022-12-18T21:34:19.457Z,2.30
2022-12-18T21:36:48.719Z,2.83
2022-12-18T21:39:18.384Z,3.08
2022-12-18T21:42:07.261Z,2.22
2022-12-18T21:44:38.833Z,2.33
2022-12-18T21:47:22.582Z,3.38
2022-12-18T21:49:53.894Z,2.83
2022-12-18T21:52:31.566Z,4.28
2022-12-18T21:55:07.932Z,3.70
2022-12-18T21:57:37.775Z,3.53
2022-12-18T22:00:07.573Z,2.70
2022-12-18T22:02:36.049Z,2.80
2022-12-18T22:05:06.339Z,3.20
2022-12-18T22:07:35.339Z,2.72
2022-12-18T22:10:03.620Z,2.92
2022-12-18T22:12:44.172Z,2.50
2022-12-18T22:15:21.127Z,2.78
2022-12-18T22:17:51.274Z,2.10
2022-12-18T22:20:27.242Z,2.45
2022-12-18T22:22:55.502Z,2.30
2022-12-18T22:25:23.785Z,3.20
2022-12-18T22:28:05.896Z,2.30
2022-12-18T22:30:34.132Z,1.65
2022-12-18T22:33:03.644Z,1.25
2022-12-18T22:35:33.317Z,1.77
2022-12-18T22:38:03.416Z,1.20
2022-12-18T22:40:31.704Z,1.40
2022-12-18T22:42:59.992Z,1.67
2022-12-18T22:45:28.781Z,1.58
2022-12-18T22:47:57.254Z,1.50
2022-12-18T22:50:25.516Z,1.67
2022-12-18T22:52:55.138Z,1.40
2022-12-18T22:55:23.389Z,1.40
2022-12-18T22:57:51.615Z,1.50
2022-12-18T23:00:23.838Z,1.52
2022-12-18T23:02:59.981Z,1.80
2022-12-18T23:05:30.582Z,1.67
2022-12-18T23:08:00.742Z,1.48
2022-12-18T23:10:29.367Z,3.13
2022-12-18T23:12:57.820Z,1.52
2022-12-18T23:15:28.081Z,1.30
2022-12-18T23:17:58.718Z,1.23
2022-12-18T23:20:27.864Z,1.40
2022-12-18T23:22:56.171Z,1.20
2022-12-18T23:25:25.948Z,1.00
2022-12-18T23:27:54.220Z,1.75
2022-12-18T23:30:22.630Z,1.55
2022-12-18T23:32:51.080Z,1.42
2022-12-18T23:35:19.561Z,1.20
2022-12-18T23:37:59.434Z,1.50
2022-12-18T23:40:30.194Z,1.20
2022-12-18T23:42:58.496Z,1.30
2022-12-18T23:45:26.705Z,1.23
2022-12-18T23:47:54.929Z,0.90
2022-12-18T23:50:27.775Z,1.15
2022-12-18T23:53:00.762Z,1.45
2022-12-18T23:55:35.795Z,0.90
2022-12-18T23:58:04.086Z,1.05
